Kagamaru — JD3049 — position and weather

sailwx.info

Track history (hours):
 
Tides and Currents Weather Stations Pressure Air Temp Water Temp Dewpoint Dewpoint Depression Visibility Wind Speed Wind Dir Waves Ship Positions

Kagamaru

Last reported at 2014-Jul-25 17:34 UTC. Time now 2014-Jul-25 18:27 UTC.
Position N 35°27' E 139°39'.

Length 34 m; draft 3.6 m.

Type: Tug. MMSI: 431001272.

Date/timePositionNaut miles runAvg speedWind from/ knotsBaromVisibWave heightAir tempDewpointWater temp
2014-Jul-25 17:34N 35°27' E 139°39'0 0.0
2014-Jul-25 16:34N 35°27' E 139°39'0 0.0
2014-Jul-25 15:34N 35°27' E 139°39'0 0.0
2014-Jul-25 14:33N 35°27' E 139°39'0 0.0
2014-Jul-25 13:34N 35°27' E 139°39'0 0.0
2014-Jul-25 12:34N 35°27' E 139°39'0 0.0
2014-Jul-25 11:34N 35°27' E 139°39'0 0.0
2014-Jul-25 10:34N 35°27' E 139°39'0 0.0
2014-Jul-25 09:33N 35°27' E 139°39'0 0.0
2014-Jul-25 08:34N 35°27' E 139°39'0 0.0
2014-Jul-25 07:34N 35°27' E 139°39'0 0.1
2014-Jul-25 06:33N 35°27' E 139°39'0 0.3
2014-Jul-25 05:34N 35°27' E 139°39'0 0.0
2014-Jul-25 04:34N 35°27' E 139°39'0 0.0
2014-Jul-25 03:33N 35°27' E 139°39'0 0.0
2014-Jul-25 02:34N 35°27' E 139°39'0 0.0
2014-Jul-25 01:34N 35°27' E 139°39'0 0.0
2014-Jul-25 00:34N 35°27' E 139°39'3 3.3
2014-Jul-24 23:34N 35°24' E 139°41'1 1.2
2014-Jul-24 22:34N 35°23' E 139°41'5 4.5
2014-Jul-24 21:34N 35°27' E 139°40'0 0.5
2014-Jul-24 20:34N 35°27' E 139°39'0 0.0
2014-Jul-24 19:34N 35°27' E 139°39'0 0.0
2014-Jul-24 18:33N 35°27' E 139°39'0 0.0
2014-Jul-24 17:34N 35°27' E 139°39'0 0.0
2014-Jul-24 16:34N 35°27' E 139°39'0 0.0
2014-Jul-24 15:34N 35°27' E 139°39'0 0.0
2014-Jul-24 14:34N 35°27' E 139°39'0 0.0
2014-Jul-24 13:34N 35°27' E 139°39'0 0.0
2014-Jul-24 12:33N 35°27' E 139°39'0 0.0
2014-Jul-24 11:34N 35°27' E 139°39'0 0.0
2014-Jul-24 10:33N 35°27' E 139°39'0 0.0
2014-Jul-24 09:34N 35°27' E 139°39'0 0.0
2014-Jul-24 08:34N 35°27' E 139°39'0 0.0
2014-Jul-24 07:34N 35°27' E 139°39'0 0.0
2014-Jul-24 06:34N 35°27' E 139°39'0 0.0
2014-Jul-24 05:34N 35°27' E 139°39'0 0.0
2014-Jul-24 04:34N 35°27' E 139°39'0 0.0
2014-Jul-24 03:34N 35°27' E 139°39'0 0.0
2014-Jul-24 02:33N 35°27' E 139°39'0 0.0
2014-Jul-24 01:34N 35°27' E 139°39'0 0.0
2014-Jul-24 00:34N 35°27' E 139°39'0 0.0
2014-Jul-23 23:34N 35°27' E 139°39'1 1.3
2014-Jul-23 22:34N 35°27' E 139°41'2 1.9
2014-Jul-23 21:34N 35°26' E 139°43'3 3.1
2014-Jul-23 20:33N 35°27' E 139°39'0 0.0
2014-Jul-23 19:34N 35°27' E 139°39'0 0.0
2014-Jul-23 18:34N 35°27' E 139°39'0 0.0
2014-Jul-23 17:34N 35°27' E 139°39'0 0.0
2014-Jul-23 16:33N 35°27' E 139°39'0 0.0
2014-Jul-23 15:34N 35°27' E 139°39'0 0.0
2014-Jul-23 14:34N 35°27' E 139°39'0 0.0
2014-Jul-23 13:34N 35°27' E 139°39'0 0.0
2014-Jul-23 12:34N 35°27' E 139°39'0 0.0
2014-Jul-23 11:34N 35°27' E 139°39'0 0.0
2014-Jul-23 10:33N 35°27' E 139°39'0 0.0
2014-Jul-23 09:34N 35°27' E 139°39'0 0.0
2014-Jul-23 08:34N 35°27' E 139°39'3 3.1
2014-Jul-23 07:34N 35°24' E 139°41'1 1.0
2014-Jul-23 06:34N 35°23' E 139°40'0 0.0
2014-Jul-23 05:34N 35°23' E 139°40'0 0.0
2014-Jul-23 04:34N 35°23' E 139°40'1 1.0
2014-Jul-23 03:34N 35°24' E 139°41'3 2.8
2014-Jul-23 02:34N 35°27' E 139°42'0 0.2
2014-Jul-23 01:34N 35°27' E 139°42'0 0.0
2014-Jul-23 00:34N 35°27' E 139°42'3 2.7
2014-Jul-22 23:33N 35°29' E 139°44'1 0.8
2014-Jul-22 22:34N 35°28' E 139°45'1 1.0
2014-Jul-22 21:34N 35°27' E 139°44'4 3.7
2014-Jul-22 20:34N 35°27' E 139°40'0 0.0
2014-Jul-22 19:34N 35°27' E 139°40'0 0.0
2014-Jul-22 18:34N 35°27' E 139°40'0 0.0
2014-Jul-22 17:34N 35°27' E 139°40'0 0.0
2014-Jul-22 16:34N 35°27' E 139°40'0 0.0
2014-Jul-22 15:34N 35°27' E 139°40'0 0.0
2014-Jul-22 14:34N 35°27' E 139°40'0 0.0
2014-Jul-22 13:34N 35°27' E 139°40'0 0.0
2014-Jul-22 12:34N 35°27' E 139°40'0 0.0
2014-Jul-22 11:34N 35°27' E 139°40'0 0.0
2014-Jul-22 10:34N 35°27' E 139°40'0 0.0
2014-Jul-22 09:34N 35°27' E 139°40'0 0.0
2014-Jul-22 08:34N 35°27' E 139°40'0 0.0
2014-Jul-22 07:34N 35°27' E 139°40'2 1.6
2014-Jul-22 06:34N 35°28' E 139°42'2 1.8
2014-Jul-22 05:34N 35°27' E 139°39'0 0.0
2014-Jul-22 04:34N 35°27' E 139°39'3 3.0
2014-Jul-22 03:34N 35°27' E 139°43'0 0.3
2014-Jul-22 02:34N 35°28' E 139°43'1 1.0
2014-Jul-22 01:34N 35°27' E 139°43'1 0.5
2014-Jul-22 00:34N 35°27' E 139°42'0 0.0
2014-Jul-21 23:34N 35°27' E 139°42'1 1.4
2014-Jul-21 22:33N 35°27' E 139°41'1 0.9
2014-Jul-21 21:34N 35°27' E 139°40'0 0.0
2014-Jul-21 20:34N 35°27' E 139°40'0 0.0
2014-Jul-21 20:18N 35°27' E 139°40'0 0.0
2014-Jul-21 19:34N 35°27' E 139°40'0 0.0
2014-Jul-21 18:34N 35°27' E 139°40'0 0.0
2014-Jul-21 17:34N 35°27' E 139°40'0 0.0
2014-Jul-21 16:34N 35°27' E 139°40'0 0.0
2014-Jul-21 15:34N 35°27' E 139°40'0 0.0
2014-Jul-21 14:33N 35°27' E 139°40'0 0.0
2014-Jul-21 13:34N 35°27' E 139°40'0 0.0
2014-Jul-21 12:34N 35°27' E 139°40'0 0.0
2014-Jul-21 11:34N 35°27' E 139°40'0 0.0
2014-Jul-21 10:34N 35°27' E 139°40'0 0.0
2014-Jul-21 09:34N 35°27' E 139°40'0 0.0
2014-Jul-21 08:34N 35°27' E 139°40'0 0.0
2014-Jul-21 07:34N 35°27' E 139°40'0 0.0
2014-Jul-21 06:34N 35°27' E 139°40'0 0.0
2014-Jul-21 05:34N 35°27' E 139°40'0 0.0
2014-Jul-21 04:34N 35°27' E 139°40'0 0.0
2014-Jul-21 03:34N 35°27' E 139°40'0 0.0
2014-Jul-21 02:34N 35°27' E 139°40'0 0.0
2014-Jul-21 01:34N 35°27' E 139°40'0 0.0
2014-Jul-21 00:33N 35°27' E 139°40'0 0.0
2014-Jul-20 23:34N 35°27' E 139°40'0 0.0
2014-Jul-20 22:34N 35°27' E 139°40'0 0.0
2014-Jul-20 21:34N 35°27' E 139°40'0 0.0
2014-Jul-20 20:34N 35°27' E 139°40'0 0.0
2014-Jul-20 19:34N 35°27' E 139°40'0 0.0
2014-Jul-20 18:34N 35°27' E 139°40'0 0.0
2014-Jul-20 17:34N 35°27' E 139°40'0 0.0
2014-Jul-20 16:34N 35°27' E 139°40'0 0.0
2014-Jul-20 15:34N 35°27' E 139°40'0 0.0
2014-Jul-20 14:34N 35°27' E 139°40'0 0.0
2014-Jul-20 13:33N 35°27' E 139°40'0 0.0
2014-Jul-20 12:34N 35°27' E 139°40'0 0.0
2014-Jul-20 11:34N 35°27' E 139°40'0 0.0
2014-Jul-20 10:33N 35°27' E 139°40'0 0.0
2014-Jul-20 09:34N 35°27' E 139°40'0 0.0
2014-Jul-20 08:34N 35°27' E 139°40'0 0.0
2014-Jul-20 07:34N 35°27' E 139°40'0 0.0
2014-Jul-20 06:34N 35°27' E 139°40'0 0.0
2014-Jul-20 05:34N 35°27' E 139°40'0 0.0
2014-Jul-20 04:34N 35°27' E 139°40'0 0.0
2014-Jul-20 03:34N 35°27' E 139°40'0 0.0
2014-Jul-20 02:34N 35°27' E 139°40'0 0.0
2014-Jul-20 01:34N 35°27' E 139°40'0 0.0
2014-Jul-20 00:34N 35°27' E 139°40'0 0.0
2014-Jul-19 23:34N 35°27' E 139°40'0 0.0
2014-Jul-19 22:34N 35°27' E 139°40'2 2.0
2014-Jul-19 21:34N 35°27' E 139°42'1 0.8
2014-Jul-19 20:34N 35°28' E 139°43'1 0.7
2014-Jul-19 19:33N 35°27' E 139°42'2 1.6
2014-Jul-19 18:34N 35°26' E 139°41'1 1.3
2014-Jul-19 17:34N 35°28' E 139°41'0 0.0
2014-Jul-19 16:33N 35°28' E 139°41'0 0.0
2014-Jul-19 15:34N 35°28' E 139°41'0 0.0
2014-Jul-19 14:34N 35°28' E 139°41'0 0.0
2014-Jul-19 13:34N 35°28' E 139°41'0 0.0
2014-Jul-19 12:34N 35°28' E 139°41'0 0.0
2014-Jul-19 11:34N 35°28' E 139°41'2 1.6
2014-Jul-19 10:33N 35°26' E 139°42'1 0.5
2014-Jul-19 09:34N 35°26' E 139°42'0 0.0
2014-Jul-19 08:34N 35°26' E 139°42'3 2.5
2014-Jul-19 07:33N 35°24' E 139°39'0 0.3
2014-Jul-19 06:34N 35°24' E 139°39'3 2.9
2014-Jul-19 05:34N 35°27' E 139°40'1 0.5
2014-Jul-19 04:34N 35°27' E 139°39'0 0.0
2014-Jul-19 03:34N 35°27' E 139°39'0 0.0
2014-Jul-19 02:34N 35°27' E 139°39'0 0.0
2014-Jul-19 01:33N 35°27' E 139°39'0 0.0
2014-Jul-19 00:34N 35°27' E 139°39'0 0.3
2014-Jul-18 23:34N 35°27' E 139°39'0 0.0
2014-Jul-18 22:34N 35°27' E 139°39'0 0.0
2014-Jul-18 21:33N 35°27' E 139°39'0 0.0
2014-Jul-18 20:34N 35°27' E 139°39'0 0.0
2014-Jul-18 19:34N 35°27' E 139°39'0 0.0
2014-Jul-18 18:34N 35°27' E 139°39'0 0.0
2014-Jul-18 17:34N 35°27' E 139°39'0 0.0
2014-Jul-18 16:34N 35°27' E 139°39'0 0.0
2014-Jul-18 15:34N 35°27' E 139°39'0 0.0
2014-Jul-18 14:34N 35°27' E 139°39'0 0.0
2014-Jul-18 13:33N 35°27' E 139°39'0 0.0
2014-Jul-18 12:34N 35°27' E 139°39'0 0.0
2014-Jul-18 11:33N 35°27' E 139°39'0 0.0
2014-Jul-18 10:34N 35°27' E 139°39'0 0.0
2014-Jul-18 09:34N 35°27' E 139°39'0 0.0
2014-Jul-18 08:33N 35°27' E 139°39'0 0.0
2014-Jul-18 07:33N 35°27' E 139°39'0 0.0
2014-Jul-18 06:34N 35°27' E 139°39'0 0.0
2014-Jul-18 05:34N 35°27' E 139°39'0 0.0
2014-Jul-18 04:34N 35°27' E 139°39'0 0.0
2014-Jul-18 03:33N 35°27' E 139°39'0 0.0
2014-Jul-18 02:34N 35°27' E 139°39'0 0.1
2014-Jul-18 01:34N 35°27' E 139°39'0 0.0
2014-Jul-18 00:34N 35°27' E 139°39'1 1.2
2014-Jul-17 23:34N 35°28' E 139°40'1 0.5
2014-Jul-17 22:34N 35°28' E 139°41'3 2.5
2014-Jul-17 21:34N 35°27' E 139°43'3 3.2
2014-Jul-17 20:33N 35°27' E 139°40'1 0.6
2014-Jul-17 19:34N 35°27' E 139°39'0 0.0
2014-Jul-17 18:34N 35°27' E 139°39'0 0.0
2014-Jul-17 17:34N 35°27' E 139°39'0 0.0
2014-Jul-17 16:34N 35°27' E 139°39'0 0.0
2014-Jul-17 15:34N 35°27' E 139°39'0 0.0
2014-Jul-17 14:34N 35°27' E 139°39'0 0.0
2014-Jul-17 13:34N 35°27' E 139°39'0 0.0
2014-Jul-17 12:34N 35°27' E 139°39'0 0.0
2014-Jul-17 11:34N 35°27' E 139°39'0 0.0
2014-Jul-17 10:34N 35°27' E 139°39'0 0.0
2014-Jul-17 09:34N 35°27' E 139°39'0 0.0
2014-Jul-17 08:34N 35°27' E 139°39'0 0.0
2014-Jul-17 07:34N 35°27' E 139°39'0 0.3
2014-Jul-17 06:34N 35°27' E 139°39'0 0.0
2014-Jul-17 05:34N 35°27' E 139°39'0 0.0
2014-Jul-17 04:33N 35°27' E 139°39'0 0.0
2014-Jul-17 03:34N 35°27' E 139°39'0 0.0
2014-Jul-17 02:34N 35°27' E 139°39'3 3.1
2014-Jul-17 01:33N 35°28' E 139°43'0 0.1
2014-Jul-17 00:34N 35°28' E 139°43'1 1.1
2014-Jul-16 23:34N 35°27' E 139°44'4 4.4
2014-Jul-16 22:33N 35°31' E 139°46'4 4.3
2014-Jul-16 21:34N 35°28' E 139°42'3 2.6
2014-Jul-16 20:34N 35°27' E 139°39'0 0.0
2014-Jul-16 19:34N 35°27' E 139°39'0 0.0
2014-Jul-16 18:34N 35°27' E 139°39'0 0.0
2014-Jul-16 17:34N 35°27' E 139°39'0 0.0
2014-Jul-16 16:33N 35°27' E 139°39'0 0.0
2014-Jul-16 15:34N 35°27' E 139°39'0 0.0
2014-Jul-16 14:34N 35°27' E 139°39'0 0.0
2014-Jul-16 13:34N 35°27' E 139°39'0 0.0
2014-Jul-16 12:33N 35°27' E 139°39'0 0.0
2014-Jul-16 11:34N 35°27' E 139°39'0 0.0
2014-Jul-16 10:34N 35°27' E 139°39'0 0.1
2014-Jul-16 09:34N 35°27' E 139°39'3 2.5
2014-Jul-16 08:34N 35°26' E 139°42'2 1.6
2014-Jul-16 07:34N 35°27' E 139°44'1 1.4
2014-Jul-16 06:34N 35°27' E 139°42'0 0.4
2014-Jul-16 05:34N 35°27' E 139°43'2 1.7
2014-Jul-16 04:34N 35°28' E 139°40'0 0.0
2014-Jul-16 03:34N 35°28' E 139°40'0 0.0
2014-Jul-16 02:34N 35°28' E 139°40'0 0.0
2014-Jul-16 01:34N 35°28' E 139°40'3 3.1
2014-Jul-16 00:33N 35°30' E 139°43'3 2.8
2014-Jul-15 23:34N 35°29' E 139°47'0 0.0
2014-Jul-15 22:33N 35°29' E 139°47'7 6.8
2014-Jul-15 21:34N 35°24' E 139°42'3 2.9
2014-Jul-15 20:34N 35°27' E 139°41'2 1.5
2014-Jul-15 19:34N 35°27' E 139°39'0 0.0
2014-Jul-15 18:34N 35°27' E 139°39'  
Track history (hours):
 
Tides and Currents Weather Stations Pressure Air Temp Water Temp Dewpoint Dewpoint Depression Visibility Wind Speed Wind Dir Waves Ship Positions

Kagamaru

Last reported at 2014-Jul-25 17:34 UTC. Time now 2014-Jul-25 18:27 UTC.
Position N 35°27' E 139°39'.

Length 34 m; draft 3.6 m.

Type: Tug. MMSI: 431001272.

Date/timePositionNaut miles runAvg speedWind from/ knotsBaromVisibWave heightAir tempDewpointWater temp
2014-Jul-25 17:34N 35°27' E 139°39'0 0.0
2014-Jul-25 16:34N 35°27' E 139°39'0 0.0
2014-Jul-25 15:34N 35°27' E 139°39'0 0.0
2014-Jul-25 14:33N 35°27' E 139°39'0 0.0
2014-Jul-25 13:34N 35°27' E 139°39'0 0.0
2014-Jul-25 12:34N 35°27' E 139°39'0 0.0
2014-Jul-25 11:34N 35°27' E 139°39'0 0.0
2014-Jul-25 10:34N 35°27' E 139°39'0 0.0
2014-Jul-25 09:33N 35°27' E 139°39'0 0.0
2014-Jul-25 08:34N 35°27' E 139°39'0 0.0
2014-Jul-25 07:34N 35°27' E 139°39'0 0.1
2014-Jul-25 06:33N 35°27' E 139°39'0 0.3
2014-Jul-25 05:34N 35°27' E 139°39'0 0.0
2014-Jul-25 04:34N 35°27' E 139°39'0 0.0
2014-Jul-25 03:33N 35°27' E 139°39'0 0.0
2014-Jul-25 02:34N 35°27' E 139°39'0 0.0
2014-Jul-25 01:34N 35°27' E 139°39'0 0.0
2014-Jul-25 00:34N 35°27' E 139°39'3 3.3
2014-Jul-24 23:34N 35°24' E 139°41'1 1.2
2014-Jul-24 22:34N 35°23' E 139°41'5 4.5
2014-Jul-24 21:34N 35°27' E 139°40'0 0.5
2014-Jul-24 20:34N 35°27' E 139°39'0 0.0
2014-Jul-24 19:34N 35°27' E 139°39'0 0.0
2014-Jul-24 18:33N 35°27' E 139°39'0 0.0
2014-Jul-24 17:34N 35°27' E 139°39'0 0.0
2014-Jul-24 16:34N 35°27' E 139°39'0 0.0
2014-Jul-24 15:34N 35°27' E 139°39'0 0.0
2014-Jul-24 14:34N 35°27' E 139°39'0 0.0
2014-Jul-24 13:34N 35°27' E 139°39'0 0.0
2014-Jul-24 12:33N 35°27' E 139°39'0 0.0
2014-Jul-24 11:34N 35°27' E 139°39'0 0.0
2014-Jul-24 10:33N 35°27' E 139°39'0 0.0
2014-Jul-24 09:34N 35°27' E 139°39'0 0.0
2014-Jul-24 08:34N 35°27' E 139°39'0 0.0
2014-Jul-24 07:34N 35°27' E 139°39'0 0.0
2014-Jul-24 06:34N 35°27' E 139°39'0 0.0
2014-Jul-24 05:34N 35°27' E 139°39'0 0.0
2014-Jul-24 04:34N 35°27' E 139°39'0 0.0
2014-Jul-24 03:34N 35°27' E 139°39'0 0.0
2014-Jul-24 02:33N 35°27' E 139°39'0 0.0
2014-Jul-24 01:34N 35°27' E 139°39'0 0.0
2014-Jul-24 00:34N 35°27' E 139°39'0 0.0
2014-Jul-23 23:34N 35°27' E 139°39'1 1.3
2014-Jul-23 22:34N 35°27' E 139°41'2 1.9
2014-Jul-23 21:34N 35°26' E 139°43'3 3.1
2014-Jul-23 20:33N 35°27' E 139°39'0 0.0
2014-Jul-23 19:34N 35°27' E 139°39'0 0.0
2014-Jul-23 18:34N 35°27' E 139°39'0 0.0
2014-Jul-23 17:34N 35°27' E 139°39'0 0.0
2014-Jul-23 16:33N 35°27' E 139°39'0 0.0
2014-Jul-23 15:34N 35°27' E 139°39'0 0.0
2014-Jul-23 14:34N 35°27' E 139°39'0 0.0
2014-Jul-23 13:34N 35°27' E 139°39'0 0.0
2014-Jul-23 12:34N 35°27' E 139°39'0 0.0
2014-Jul-23 11:34N 35°27' E 139°39'0 0.0
2014-Jul-23 10:33N 35°27' E 139°39'0 0.0
2014-Jul-23 09:34N 35°27' E 139°39'0 0.0
2014-Jul-23 08:34N 35°27' E 139°39'3 3.1
2014-Jul-23 07:34N 35°24' E 139°41'1 1.0
2014-Jul-23 06:34N 35°23' E 139°40'0 0.0
2014-Jul-23 05:34N 35°23' E 139°40'0 0.0
2014-Jul-23 04:34N 35°23' E 139°40'1 1.0
2014-Jul-23 03:34N 35°24' E 139°41'3 2.8
2014-Jul-23 02:34N 35°27' E 139°42'0 0.2
2014-Jul-23 01:34N 35°27' E 139°42'0 0.0
2014-Jul-23 00:34N 35°27' E 139°42'3 2.7
2014-Jul-22 23:33N 35°29' E 139°44'1 0.8
2014-Jul-22 22:34N 35°28' E 139°45'1 1.0
2014-Jul-22 21:34N 35°27' E 139°44'4 3.7
2014-Jul-22 20:34N 35°27' E 139°40'0 0.0
2014-Jul-22 19:34N 35°27' E 139°40'0 0.0
2014-Jul-22 18:34N 35°27' E 139°40'0 0.0
2014-Jul-22 17:34N 35°27' E 139°40'0 0.0
2014-Jul-22 16:34N 35°27' E 139°40'0 0.0
2014-Jul-22 15:34N 35°27' E 139°40'0 0.0
2014-Jul-22 14:34N 35°27' E 139°40'0 0.0
2014-Jul-22 13:34N 35°27' E 139°40'0 0.0
2014-Jul-22 12:34N 35°27' E 139°40'0 0.0
2014-Jul-22 11:34N 35°27' E 139°40'0 0.0
2014-Jul-22 10:34N 35°27' E 139°40'0 0.0
2014-Jul-22 09:34N 35°27' E 139°40'0 0.0
2014-Jul-22 08:34N 35°27' E 139°40'0 0.0
2014-Jul-22 07:34N 35°27' E 139°40'2 1.6
2014-Jul-22 06:34N 35°28' E 139°42'2 1.8
2014-Jul-22 05:34N 35°27' E 139°39'0 0.0
2014-Jul-22 04:34N 35°27' E 139°39'3 3.0
2014-Jul-22 03:34N 35°27' E 139°43'0 0.3
2014-Jul-22 02:34N 35°28' E 139°43'1 1.0
2014-Jul-22 01:34N 35°27' E 139°43'1 0.5
2014-Jul-22 00:34N 35°27' E 139°42'0 0.0
2014-Jul-21 23:34N 35°27' E 139°42'1 1.4
2014-Jul-21 22:33N 35°27' E 139°41'1 0.9
2014-Jul-21 21:34N 35°27' E 139°40'0 0.0
2014-Jul-21 20:34N 35°27' E 139°40'0 0.0
2014-Jul-21 20:18N 35°27' E 139°40'0 0.0
2014-Jul-21 19:34N 35°27' E 139°40'0 0.0
2014-Jul-21 18:34N 35°27' E 139°40'0 0.0
2014-Jul-21 17:34N 35°27' E 139°40'0 0.0
2014-Jul-21 16:34N 35°27' E 139°40'0 0.0
2014-Jul-21 15:34N 35°27' E 139°40'0 0.0
2014-Jul-21 14:33N 35°27' E 139°40'0 0.0
2014-Jul-21 13:34N 35°27' E 139°40'0 0.0
2014-Jul-21 12:34N 35°27' E 139°40'0 0.0
2014-Jul-21 11:34N 35°27' E 139°40'0 0.0
2014-Jul-21 10:34N 35°27' E 139°40'0 0.0
2014-Jul-21 09:34N 35°27' E 139°40'0 0.0
2014-Jul-21 08:34N 35°27' E 139°40'0 0.0
2014-Jul-21 07:34N 35°27' E 139°40'0 0.0
2014-Jul-21 06:34N 35°27' E 139°40'0 0.0
2014-Jul-21 05:34N 35°27' E 139°40'0 0.0
2014-Jul-21 04:34N 35°27' E 139°40'0 0.0
2014-Jul-21 03:34N 35°27' E 139°40'0 0.0
2014-Jul-21 02:34N 35°27' E 139°40'0 0.0
2014-Jul-21 01:34N 35°27' E 139°40'0 0.0
2014-Jul-21 00:33N 35°27' E 139°40'0 0.0
2014-Jul-20 23:34N 35°27' E 139°40'0 0.0
2014-Jul-20 22:34N 35°27' E 139°40'0 0.0
2014-Jul-20 21:34N 35°27' E 139°40'0 0.0
2014-Jul-20 20:34N 35°27' E 139°40'0 0.0
2014-Jul-20 19:34N 35°27' E 139°40'0 0.0
2014-Jul-20 18:34N 35°27' E 139°40'0 0.0
2014-Jul-20 17:34N 35°27' E 139°40'0 0.0
2014-Jul-20 16:34N 35°27' E 139°40'0 0.0
2014-Jul-20 15:34N 35°27' E 139°40'0 0.0
2014-Jul-20 14:34N 35°27' E 139°40'0 0.0
2014-Jul-20 13:33N 35°27' E 139°40'0 0.0
2014-Jul-20 12:34N 35°27' E 139°40'0 0.0
2014-Jul-20 11:34N 35°27' E 139°40'0 0.0
2014-Jul-20 10:33N 35°27' E 139°40'0 0.0
2014-Jul-20 09:34N 35°27' E 139°40'0 0.0
2014-Jul-20 08:34N 35°27' E 139°40'0 0.0
2014-Jul-20 07:34N 35°27' E 139°40'0 0.0
2014-Jul-20 06:34N 35°27' E 139°40'0 0.0
2014-Jul-20 05:34N 35°27' E 139°40'0 0.0
2014-Jul-20 04:34N 35°27' E 139°40'0 0.0
2014-Jul-20 03:34N 35°27' E 139°40'0 0.0
2014-Jul-20 02:34N 35°27' E 139°40'0 0.0
2014-Jul-20 01:34N 35°27' E 139°40'0 0.0
2014-Jul-20 00:34N 35°27' E 139°40'0 0.0
2014-Jul-19 23:34N 35°27' E 139°40'0 0.0
2014-Jul-19 22:34N 35°27' E 139°40'2 2.0
2014-Jul-19 21:34N 35°27' E 139°42'1 0.8
2014-Jul-19 20:34N 35°28' E 139°43'1 0.7
2014-Jul-19 19:33N 35°27' E 139°42'2 1.6
2014-Jul-19 18:34N 35°26' E 139°41'1 1.3
2014-Jul-19 17:34N 35°28' E 139°41'0 0.0
2014-Jul-19 16:33N 35°28' E 139°41'0 0.0
2014-Jul-19 15:34N 35°28' E 139°41'0 0.0
2014-Jul-19 14:34N 35°28' E 139°41'0 0.0
2014-Jul-19 13:34N 35°28' E 139°41'0 0.0
2014-Jul-19 12:34N 35°28' E 139°41'0 0.0
2014-Jul-19 11:34N 35°28' E 139°41'2 1.6
2014-Jul-19 10:33N 35°26' E 139°42'1 0.5
2014-Jul-19 09:34N 35°26' E 139°42'0 0.0
2014-Jul-19 08:34N 35°26' E 139°42'3 2.5
2014-Jul-19 07:33N 35°24' E 139°39'0 0.3
2014-Jul-19 06:34N 35°24' E 139°39'3 2.9
2014-Jul-19 05:34N 35°27' E 139°40'1 0.5
2014-Jul-19 04:34N 35°27' E 139°39'0 0.0
2014-Jul-19 03:34N 35°27' E 139°39'0 0.0
2014-Jul-19 02:34N 35°27' E 139°39'0 0.0
2014-Jul-19 01:33N 35°27' E 139°39'0 0.0
2014-Jul-19 00:34N 35°27' E 139°39'0 0.3
2014-Jul-18 23:34N 35°27' E 139°39'0 0.0
2014-Jul-18 22:34N 35°27' E 139°39'0 0.0
2014-Jul-18 21:33N 35°27' E 139°39'0 0.0
2014-Jul-18 20:34N 35°27' E 139°39'0 0.0
2014-Jul-18 19:34N 35°27' E 139°39'0 0.0
2014-Jul-18 18:34N 35°27' E 139°39'0 0.0
2014-Jul-18 17:34N 35°27' E 139°39'0 0.0
2014-Jul-18 16:34N 35°27' E 139°39'0 0.0
2014-Jul-18 15:34N 35°27' E 139°39'0 0.0
2014-Jul-18 14:34N 35°27' E 139°39'0 0.0
2014-Jul-18 13:33N 35°27' E 139°39'0 0.0
2014-Jul-18 12:34N 35°27' E 139°39'0 0.0
2014-Jul-18 11:33N 35°27' E 139°39'0 0.0
2014-Jul-18 10:34N 35°27' E 139°39'0 0.0
2014-Jul-18 09:34N 35°27' E 139°39'0 0.0
2014-Jul-18 08:33N 35°27' E 139°39'0 0.0
2014-Jul-18 07:33N 35°27' E 139°39'0 0.0
2014-Jul-18 06:34N 35°27' E 139°39'0 0.0
2014-Jul-18 05:34N 35°27' E 139°39'0 0.0
2014-Jul-18 04:34N 35°27' E 139°39'0 0.0
2014-Jul-18 03:33N 35°27' E 139°39'0 0.0
2014-Jul-18 02:34N 35°27' E 139°39'0 0.1
2014-Jul-18 01:34N 35°27' E 139°39'0 0.0
2014-Jul-18 00:34N 35°27' E 139°39'1 1.2
2014-Jul-17 23:34N 35°28' E 139°40'1 0.5
2014-Jul-17 22:34N 35°28' E 139°41'3 2.5
2014-Jul-17 21:34N 35°27' E 139°43'3 3.2
2014-Jul-17 20:33N 35°27' E 139°40'1 0.6
2014-Jul-17 19:34N 35°27' E 139°39'0 0.0
2014-Jul-17 18:34N 35°27' E 139°39'0 0.0
2014-Jul-17 17:34N 35°27' E 139°39'0 0.0
2014-Jul-17 16:34N 35°27' E 139°39'0 0.0
2014-Jul-17 15:34N 35°27' E 139°39'0 0.0
2014-Jul-17 14:34N 35°27' E 139°39'0 0.0
2014-Jul-17 13:34N 35°27' E 139°39'0 0.0
2014-Jul-17 12:34N 35°27' E 139°39'0 0.0
2014-Jul-17 11:34N 35°27' E 139°39'0 0.0
2014-Jul-17 10:34N 35°27' E 139°39'0 0.0
2014-Jul-17 09:34N 35°27' E 139°39'0 0.0
2014-Jul-17 08:34N 35°27' E 139°39'0 0.0
2014-Jul-17 07:34N 35°27' E 139°39'0 0.3
2014-Jul-17 06:34N 35°27' E 139°39'0 0.0
2014-Jul-17 05:34N 35°27' E 139°39'0 0.0
2014-Jul-17 04:33N 35°27' E 139°39'0 0.0
2014-Jul-17 03:34N 35°27' E 139°39'0 0.0
2014-Jul-17 02:34N 35°27' E 139°39'3 3.1
2014-Jul-17 01:33N 35°28' E 139°43'0 0.1
2014-Jul-17 00:34N 35°28' E 139°43'1 1.1
2014-Jul-16 23:34N 35°27' E 139°44'4 4.4
2014-Jul-16 22:33N 35°31' E 139°46'4 4.3
2014-Jul-16 21:34N 35°28' E 139°42'3 2.6
2014-Jul-16 20:34N 35°27' E 139°39'0 0.0
2014-Jul-16 19:34N 35°27' E 139°39'0 0.0
2014-Jul-16 18:34N 35°27' E 139°39'0 0.0
2014-Jul-16 17:34N 35°27' E 139°39'0 0.0
2014-Jul-16 16:33N 35°27' E 139°39'0 0.0
2014-Jul-16 15:34N 35°27' E 139°39'0 0.0
2014-Jul-16 14:34N 35°27' E 139°39'0 0.0
2014-Jul-16 13:34N 35°27' E 139°39'0 0.0
2014-Jul-16 12:33N 35°27' E 139°39'0 0.0
2014-Jul-16 11:34N 35°27' E 139°39'0 0.0
2014-Jul-16 10:34N 35°27' E 139°39'0 0.1
2014-Jul-16 09:34N 35°27' E 139°39'3 2.5
2014-Jul-16 08:34N 35°26' E 139°42'2 1.6
2014-Jul-16 07:34N 35°27' E 139°44'1 1.4
2014-Jul-16 06:34N 35°27' E 139°42'0 0.4
2014-Jul-16 05:34N 35°27' E 139°43'2 1.7
2014-Jul-16 04:34N 35°28' E 139°40'0 0.0
2014-Jul-16 03:34N 35°28' E 139°40'0 0.0
2014-Jul-16 02:34N 35°28' E 139°40'0 0.0
2014-Jul-16 01:34N 35°28' E 139°40'3 3.1
2014-Jul-16 00:33N 35°30' E 139°43'3 2.8
2014-Jul-15 23:34N 35°29' E 139°47'0 0.0
2014-Jul-15 22:33N 35°29' E 139°47'7 6.8
2014-Jul-15 21:34N 35°24' E 139°42'3 2.9
2014-Jul-15 20:34N 35°27' E 139°41'2 1.5
2014-Jul-15 19:34N 35°27' E 139°39'0 0.0
2014-Jul-15 18:34N 35°27' E 139°39'  

Dump ship's entire track history